createdAt,value
2023-05-14T00:00:01.549Z,9.18
2023-05-14T00:02:28.218Z,8.23
2023-05-14T00:04:54.880Z,7.53
2023-05-14T00:07:21.426Z,7.68
2023-05-14T00:09:47.939Z,7.35
2023-05-14T00:12:14.560Z,6.10
2023-05-14T00:14:41.081Z,9.23
2023-05-14T00:17:07.602Z,12.13
2023-05-14T00:19:34.188Z,9.05
2023-05-14T00:22:00.750Z,8.98
2023-05-14T00:24:27.700Z,10.18
2023-05-14T00:26:54.410Z,7.30
2023-05-14T00:29:20.901Z,11.25
2023-05-14T00:31:47.473Z,11.77
2023-05-14T00:34:14.051Z,8.98
2023-05-14T00:36:40.551Z,7.57
2023-05-14T00:39:07.128Z,11.50
2023-05-14T00:41:33.672Z,8.02
2023-05-14T00:44:00.256Z,8.27
2023-05-14T00:46:27.574Z,6.50
2023-05-14T00:48:54.387Z,6.88
2023-05-14T00:51:20.966Z,6.40
2023-05-14T00:53:48.283Z,8.18
2023-05-14T00:56:16.250Z,8.00
2023-05-14T00:58:42.802Z,7.45
2023-05-14T01:01:09.545Z,7.25
2023-05-14T01:03:36.574Z,9.07
2023-05-14T01:06:26.071Z,6.65
2023-05-14T01:09:06.219Z,6.70
2023-05-14T01:11:42.615Z,9.85
2023-05-14T01:14:12.124Z,8.15
2023-05-14T01:16:40.274Z,8.07
2023-05-14T01:19:17.294Z,7.65
2023-05-14T01:21:44.036Z,7.50
2023-05-14T01:24:10.575Z,7.65
2023-05-14T01:26:37.487Z,8.85
2023-05-14T01:29:26.191Z,7.55
2023-05-14T01:31:55.585Z,7.65
2023-05-14T01:34:24.426Z,8.07
2023-05-14T01:36:52.120Z,9.40
2023-05-14T01:39:19.786Z,6.00
2023-05-14T01:41:46.672Z,9.82
2023-05-14T01:44:13.260Z,7.10
2023-05-14T01:46:39.858Z,7.60
2023-05-14T01:49:06.448Z,11.27
2023-05-14T01:51:33.029Z,7.00
2023-05-14T01:53:59.540Z,8.38
2023-05-14T01:56:26.192Z,8.27
2023-05-14T01:58:52.800Z,9.65
2023-05-14T02:01:19.393Z,8.65
2023-05-14T02:03:46.042Z,8.10
2023-05-14T02:06:12.693Z,12.35
2023-05-14T02:08:39.360Z,12.60
2023-05-14T02:11:05.917Z,8.05
2023-05-14T02:13:32.432Z,10.18
2023-05-14T02:15:58.991Z,13.70
2023-05-14T02:18:25.719Z,7.55
2023-05-14T02:20:52.283Z,8.80
2023-05-14T02:23:19.568Z,9.10
2023-05-14T02:25:50.272Z,9.98
2023-05-14T02:28:16.838Z,9.23
2023-05-14T02:30:43.385Z,16.20
2023-05-14T02:33:10.062Z,8.88
2023-05-14T02:35:37.413Z,10.63
2023-05-14T02:38:04.160Z,12.18
2023-05-14T02:40:30.721Z,12.75
2023-05-14T02:42:57.247Z,11.15
2023-05-14T02:45:24.402Z,10.15
2023-05-14T02:47:50.992Z,8.10
2023-05-14T02:50:17.696Z,8.18
2023-05-14T02:52:44.577Z,10.02
2023-05-14T02:55:11.830Z,8.55
2023-05-14T02:57:38.405Z,11.70
2023-05-14T03:00:06.048Z,6.63
2023-05-14T03:02:33.253Z,8.25
2023-05-14T03:05:00.380Z,7.18
2023-05-14T03:07:26.921Z,15.45
2023-05-14T03:09:53.460Z,6.35
2023-05-14T03:12:20.089Z,6.63
2023-05-14T03:14:46.713Z,5.68
2023-05-14T03:17:13.254Z,6.65
2023-05-14T03:19:39.810Z,7.55
2023-05-14T03:22:06.328Z,6.78
2023-05-14T03:24:32.914Z,6.80
2023-05-14T03:26:59.467Z,7.65
2023-05-14T03:29:26.007Z,6.93
2023-05-14T03:31:53.015Z,6.72
2023-05-14T03:34:19.578Z,5.35
2023-05-14T03:36:46.108Z,6.50
2023-05-14T03:39:15.484Z,5.72
2023-05-14T03:41:42.088Z,5.72
2023-05-14T03:44:08.610Z,7.78
2023-05-14T03:46:35.135Z,7.13
2023-05-14T03:49:01.782Z,7.18
2023-05-14T03:51:28.454Z,6.97
2023-05-14T03:53:55.026Z,7.22
2023-05-14T03:56:22.636Z,7.10
2023-05-14T03:58:49.192Z,6.05
2023-05-14T04:01:15.848Z,7.00
2023-05-14T04:03:42.495Z,6.88
2023-05-14T04:06:09.133Z,10.30
2023-05-14T04:08:35.709Z,6.03
2023-05-14T04:11:02.255Z,6.72
2023-05-14T04:13:28.888Z,5.93
2023-05-14T04:15:55.435Z,7.45
2023-05-14T04:18:21.982Z,5.97
2023-05-14T04:20:48.557Z,7.15
2023-05-14T04:23:15.061Z,4.47
2023-05-14T04:25:41.554Z,7.05
2023-05-14T04:28:08.101Z,6.60
2023-05-14T04:30:34.646Z,7.00
2023-05-14T04:33:01.447Z,7.47
2023-05-14T04:35:28.001Z,5.65
2023-05-14T04:37:54.563Z,5.20
2023-05-14T04:40:22.781Z,5.78
2023-05-14T04:42:49.565Z,4.22
2023-05-14T04:45:16.867Z,4.88
2023-05-14T04:47:45.088Z,3.90
2023-05-14T04:50:12.071Z,7.72
2023-05-14T04:52:39.164Z,5.65
2023-05-14T04:55:06.418Z,5.63
2023-05-14T04:57:32.957Z,4.20
2023-05-14T04:59:59.499Z,5.53
2023-05-14T05:02:26.149Z,4.30
2023-05-14T05:04:52.841Z,4.05
2023-05-14T05:07:21.729Z,5.15
2023-05-14T05:09:48.250Z,5.38
2023-05-14T05:12:14.786Z,5.30
2023-05-14T05:14:41.323Z,5.65
2023-05-14T05:17:07.998Z,3.85
2023-05-14T05:19:42.923Z,4.45
2023-05-14T05:22:10.394Z,4.43
2023-05-14T05:24:37.030Z,5.43
2023-05-14T05:27:03.793Z,3.40
2023-05-14T05:29:30.364Z,5.38
2023-05-14T05:31:57.101Z,3.58
2023-05-14T05:34:23.741Z,6.65
2023-05-14T05:36:50.288Z,5.85
2023-05-14T05:39:16.925Z,4.60
2023-05-14T05:41:44.333Z,4.72
2023-05-14T05:44:11.052Z,4.68
2023-05-14T05:46:37.761Z,5.35
2023-05-14T05:49:04.348Z,4.93
2023-05-14T05:51:31.523Z,4.88
2023-05-14T05:53:58.073Z,7.53
2023-05-14T05:56:24.590Z,8.20
2023-05-14T05:58:51.583Z,5.82
2023-05-14T06:01:18.198Z,5.40
2023-05-14T06:03:46.455Z,5.38
2023-05-14T06:06:15.570Z,5.68
2023-05-14T06:08:42.172Z,5.78
2023-05-14T06:11:08.958Z,5.82
2023-05-14T06:13:35.473Z,6.20
2023-05-14T06:16:02.102Z,4.85
2023-05-14T06:18:28.728Z,4.45
2023-05-14T06:20:56.771Z,4.75
2023-05-14T06:23:23.302Z,5.32
2023-05-14T06:25:50.856Z,4.85
2023-05-14T06:28:17.576Z,5.32
2023-05-14T06:30:44.152Z,5.55
2023-05-14T06:33:12.907Z,6.28
2023-05-14T06:35:39.687Z,5.38
2023-05-14T06:38:06.209Z,3.42
2023-05-14T06:40:32.711Z,4.47
2023-05-14T06:42:59.227Z,4.15
2023-05-14T06:45:25.764Z,4.80
2023-05-14T06:47:52.427Z,6.32
2023-05-14T06:50:19.398Z,3.35
2023-05-14T06:52:46.608Z,4.82
2023-05-14T06:55:13.169Z,4.90
2023-05-14T06:57:40.776Z,4.85
2023-05-14T07:00:08.579Z,5.20
2023-05-14T07:02:35.480Z,5.75
2023-05-14T07:05:03.080Z,4.57
2023-05-14T07:07:29.601Z,5.30
2023-05-14T07:09:56.120Z,4.60
2023-05-14T07:12:22.661Z,5.82
2023-05-14T07:14:49.427Z,4.45
2023-05-14T07:17:16.157Z,5.38
2023-05-14T07:19:42.725Z,4.90
2023-05-14T07:22:09.283Z,6.55
2023-05-14T07:24:35.794Z,5.10
2023-05-14T07:27:02.513Z,4.10
2023-05-14T07:29:30.341Z,6.65
2023-05-14T07:31:56.904Z,4.95
2023-05-14T07:34:23.393Z,5.57
2023-05-14T07:36:50.060Z,4.63
2023-05-14T07:39:16.638Z,4.95
2023-05-14T07:41:43.432Z,5.90
2023-05-14T07:44:10.025Z,5.47
2023-05-14T07:46:37.324Z,5.10
2023-05-14T07:49:03.849Z,5.72
2023-05-14T07:51:30.459Z,5.60
2023-05-14T07:53:57.002Z,5.40
2023-05-14T07:56:23.591Z,9.75
2023-05-14T07:58:50.892Z,7.32
2023-05-14T08:01:17.980Z,5.50
2023-05-14T08:03:44.638Z,5.00
2023-05-14T08:06:11.717Z,5.10
2023-05-14T08:08:38.323Z,6.30
2023-05-14T08:11:05.639Z,5.32
2023-05-14T08:13:32.434Z,5.13
2023-05-14T08:15:58.946Z,4.25
2023-05-14T08:18:25.498Z,5.03
2023-05-14T08:20:52.106Z,6.82
2023-05-14T08:23:18.712Z,4.85
2023-05-14T08:25:45.285Z,4.10
2023-05-14T08:28:12.178Z,5.85
2023-05-14T08:30:38.783Z,6.47
2023-05-14T08:33:05.593Z,5.07
2023-05-14T08:35:32.208Z,3.78
2023-05-14T08:37:58.805Z,5.72
2023-05-14T08:40:26.547Z,4.20
2023-05-14T08:42:54.305Z,4.57
2023-05-14T08:45:25.738Z,3.45
2023-05-14T08:47:52.968Z,4.35
2023-05-14T08:50:23.557Z,3.97
2023-05-14T08:52:51.186Z,3.47
2023-05-14T08:55:18.614Z,4.57
2023-05-14T08:57:46.463Z,3.38
2023-05-14T09:00:14.252Z,4.90
2023-05-14T09:02:41.735Z,2.95
2023-05-14T09:05:12.533Z,4.13
2023-05-14T09:07:39.301Z,3.78
2023-05-14T09:10:06.820Z,5.10
2023-05-14T09:12:33.337Z,3.88
2023-05-14T09:14:59.842Z,3.28
2023-05-14T09:17:29.673Z,11.80
2023-05-14T09:19:56.367Z,3.53
2023-05-14T09:22:22.945Z,3.30
2023-05-14T09:25:07.421Z,3.30
2023-05-14T09:27:34.027Z,2.97
2023-05-14T09:30:11.517Z,3.80
2023-05-14T09:32:40.324Z,3.78
2023-05-14T09:35:17.241Z,4.30
2023-05-14T09:37:49.208Z,4.88
2023-05-14T09:40:16.706Z,3.50
2023-05-14T09:42:43.336Z,3.65
2023-05-14T09:45:10.601Z,4.40
2023-05-14T09:47:38.315Z,4.47
2023-05-14T09:50:06.628Z,4.07
2023-05-14T09:52:33.692Z,5.03
2023-05-14T09:55:01.400Z,3.90
2023-05-14T09:57:28.256Z,4.82
2023-05-14T09:59:54.779Z,5.90
2023-05-14T10:02:26.531Z,6.10
2023-05-14T10:04:54.677Z,5.43
2023-05-14T10:07:30.800Z,4.28
2023-05-14T10:10:03.797Z,4.60
2023-05-14T10:12:34.622Z,3.80
2023-05-14T10:15:12.305Z,6.55
2023-05-14T10:17:41.050Z,6.35
2023-05-14T10:20:11.929Z,5.03
2023-05-14T10:22:38.897Z,4.50
2023-05-14T10:25:06.941Z,4.78
2023-05-14T10:27:33.889Z,5.18
2023-05-14T10:30:00.417Z,4.20
2023-05-14T10:32:27.253Z,4.65
2023-05-14T10:34:54.113Z,4.43
2023-05-14T10:37:25.452Z,5.20
2023-05-14T10:40:00.189Z,5.07
2023-05-14T10:42:40.782Z,4.65
2023-05-14T10:45:09.204Z,4.85
2023-05-14T10:47:38.238Z,3.80
2023-05-14T10:50:10.560Z,5.03
2023-05-14T10:52:37.415Z,4.80
2023-05-14T10:55:10.162Z,3.58
2023-05-14T10:57:38.678Z,4.13
2023-05-14T11:00:10.813Z,3.83
2023-05-14T11:02:42.551Z,5.63
2023-05-14T11:05:13.688Z,5.50
2023-05-14T11:07:42.385Z,4.97
2023-05-14T11:10:11.709Z,3.60
2023-05-14T11:12:43.677Z,3.80
2023-05-14T11:15:14.076Z,3.95
2023-05-14T11:17:42.157Z,4.43
2023-05-14T11:20:09.701Z,3.85
2023-05-14T11:22:37.381Z,5.88
2023-05-14T11:25:04.801Z,5.63
2023-05-14T11:27:34.482Z,5.40
2023-05-14T11:30:01.178Z,5.63
2023-05-14T11:32:27.944Z,5.28
2023-05-14T11:34:54.688Z,5.53
2023-05-14T11:37:21.243Z,4.45
2023-05-14T11:39:52.643Z,4.15
2023-05-14T11:42:20.272Z,4.53
2023-05-14T11:44:51.951Z,4.38
2023-05-14T11:47:20.372Z,4.82
2023-05-14T11:49:47.678Z,5.50
2023-05-14T11:52:16.412Z,4.95
2023-05-14T11:54:44.462Z,6.07
2023-05-14T11:57:12.885Z,4.47
2023-05-14T11:59:39.642Z,4.10
2023-05-14T12:02:18.544Z,6.30
2023-05-14T12:04:50.719Z,4.68
2023-05-14T12:07:17.415Z,4.03
2023-05-14T12:09:51.918Z,6.18
2023-05-14T12:12:22.414Z,4.20
2023-05-14T12:14:50.313Z,7.65
2023-05-14T12:17:18.420Z,4.82
2023-05-14T12:19:46.641Z,5.22
2023-05-14T12:22:18.936Z,6.15
2023-05-14T12:24:59.316Z,4.20
2023-05-14T12:27:27.780Z,5.25
2023-05-14T12:32:35.874Z,3.08
2023-05-14T12:35:02.515Z,3.83
2023-05-14T12:37:31.158Z,5.00
2023-05-14T12:39:57.867Z,4.13
2023-05-14T12:42:24.467Z,6.07
2023-05-14T12:44:50.983Z,3.67
2023-05-14T12:47:17.601Z,5.25
2023-05-14T12:49:44.121Z,4.80
2023-05-14T12:54:42.911Z,4.40
2023-05-14T12:57:09.593Z,5.43
2023-05-14T12:59:36.258Z,6.57
2023-05-14T13:02:02.796Z,8.27
2023-05-14T13:04:29.398Z,5.72
2023-05-14T13:06:56.033Z,5.85
2023-05-14T13:09:22.595Z,4.40
2023-05-14T13:11:49.129Z,6.65
2023-05-14T13:14:15.685Z,5.43
2023-05-14T13:16:42.552Z,5.80
2023-05-14T13:19:09.392Z,6.45
2023-05-14T13:21:36.097Z,6.53
2023-05-14T13:24:02.805Z,4.55
2023-05-14T13:26:29.384Z,5.82
2023-05-14T13:28:56.281Z,5.35
2023-05-14T13:31:22.990Z,4.95
2023-05-14T13:33:49.569Z,5.55
2023-05-14T13:36:16.408Z,4.90
2023-05-14T13:38:43.127Z,3.50
2023-05-14T13:41:09.728Z,4.70
2023-05-14T13:43:36.304Z,7.00
2023-05-14T13:46:05.309Z,5.25
2023-05-14T13:48:32.526Z,8.13
2023-05-14T13:50:59.264Z,6.25
2023-05-14T13:53:26.209Z,4.55
2023-05-14T13:56:01.264Z,5.85
2023-05-14T13:58:28.075Z,4.32
2023-05-14T14:00:54.715Z,7.57
2023-05-14T14:03:21.422Z,4.32
2023-05-14T14:05:48.147Z,6.25
2023-05-14T14:08:23.256Z,6.05
2023-05-14T14:10:50.953Z,6.43
2023-05-14T14:13:17.513Z,5.05
2023-05-14T14:15:44.366Z,5.57
2023-05-14T14:18:11.108Z,3.85
2023-05-14T14:20:38.269Z,5.82
2023-05-14T14:23:05.122Z,3.90
2023-05-14T14:25:31.717Z,3.75
2023-05-14T14:27:58.426Z,5.20
2023-05-14T14:30:25.058Z,5.28
2023-05-14T14:32:51.655Z,4.30
2023-05-14T14:35:19.521Z,5.68
2023-05-14T14:37:49.390Z,3.60
2023-05-14T14:40:17.245Z,4.57
2023-05-14T14:42:44.389Z,5.88
2023-05-14T14:45:11.945Z,5.78
2023-05-14T14:47:38.807Z,4.70
2023-05-14T14:50:06.386Z,8.27
2023-05-14T14:52:33.099Z,7.38
2023-05-14T14:54:59.644Z,4.07
2023-05-14T14:57:26.890Z,4.18
2023-05-14T14:59:53.491Z,4.72
2023-05-14T15:02:20.348Z,4.05
2023-05-14T15:04:46.996Z,5.18
2023-05-14T15:07:15.914Z,3.83
2023-05-14T15:09:42.470Z,5.45
2023-05-14T15:12:10.221Z,3.25
2023-05-14T15:14:36.771Z,4.25
2023-05-14T15:17:03.565Z,7.78
2023-05-14T15:19:31.806Z,4.18
2023-05-14T15:21:58.548Z,5.85
2023-05-14T15:24:26.293Z,3.60
2023-05-14T15:26:53.759Z,4.10
2023-05-14T15:29:20.528Z,4.40
2023-05-14T15:31:47.281Z,4.07
2023-05-14T15:34:13.886Z,3.17
2023-05-14T15:36:40.644Z,3.83
2023-05-14T15:39:10.218Z,3.75
2023-05-14T15:41:36.917Z,3.85
2023-05-14T15:44:03.534Z,4.03
2023-05-14T15:46:30.612Z,4.05
2023-05-14T15:48:58.036Z,4.38
2023-05-14T15:51:24.760Z,3.78
2023-05-14T15:53:53.567Z,3.03
2023-05-14T15:56:21.129Z,3.33
2023-05-14T15:58:48.294Z,3.53
2023-05-14T16:01:14.877Z,4.10
2023-05-14T16:03:41.704Z,4.25
2023-05-14T16:06:08.344Z,3.50
2023-05-14T16:08:34.930Z,4.55
2023-05-14T16:11:01.463Z,4.30
2023-05-14T16:13:27.998Z,4.07
2023-05-14T16:15:54.896Z,3.58
2023-05-14T16:18:22.364Z,3.63
2023-05-14T16:20:48.912Z,3.67
2023-05-14T16:23:15.520Z,4.75
2023-05-14T16:25:42.118Z,4.93
2023-05-14T16:28:08.854Z,4.03
2023-05-14T16:30:35.428Z,2.95
2023-05-14T16:33:02.020Z,2.92
2023-05-14T16:35:28.712Z,3.70
2023-05-14T16:37:56.154Z,4.18
2023-05-14T16:40:23.752Z,3.90
2023-05-14T16:42:51.244Z,4.20
2023-05-14T16:45:18.054Z,4.20
2023-05-14T16:47:44.679Z,4.85
2023-05-14T16:50:11.680Z,4.45
2023-05-14T16:52:38.199Z,3.33
2023-05-14T16:55:05.380Z,3.63
2023-05-14T16:57:32.093Z,4.57
2023-05-14T16:59:58.688Z,3.72
2023-05-14T17:02:25.561Z,3.70
2023-05-14T17:04:54.162Z,4.38
2023-05-14T17:07:20.792Z,4.22
2023-05-14T17:09:47.341Z,3.95
2023-05-14T17:12:13.982Z,4.78
2023-05-14T17:14:40.563Z,3.58
2023-05-14T17:17:07.071Z,5.32
2023-05-14T17:19:33.773Z,3.25
2023-05-14T17:22:00.597Z,3.80
2023-05-14T17:24:27.157Z,5.97
2023-05-14T17:26:53.779Z,3.20
2023-05-14T17:29:20.651Z,3.88
2023-05-14T17:31:48.285Z,7.60
2023-05-14T17:34:14.947Z,4.25
2023-05-14T17:36:41.623Z,2.92
2023-05-14T17:39:08.198Z,2.78
2023-05-14T17:41:34.975Z,3.60
2023-05-14T17:44:01.528Z,3.67
2023-05-14T17:46:28.135Z,3.92
2023-05-14T17:48:54.722Z,3.17
2023-05-14T17:51:21.269Z,2.85
2023-05-14T17:53:47.852Z,3.10
2023-05-14T17:56:15.483Z,3.15
2023-05-14T17:58:42.035Z,2.65
2023-05-14T18:01:08.696Z,3.15
2023-05-14T18:03:35.534Z,2.50
2023-05-14T18:06:02.168Z,3.28
2023-05-14T18:08:28.733Z,3.45
2023-05-14T18:10:55.321Z,3.65
2023-05-14T18:13:21.875Z,2.92
2023-05-14T18:15:48.441Z,5.63
2023-05-14T18:18:18.637Z,4.88
2023-05-14T18:20:45.195Z,2.72
2023-05-14T18:23:11.705Z,3.38
2023-05-14T18:25:39.387Z,3.08
2023-05-14T18:28:06.733Z,2.70
2023-05-14T18:30:33.713Z,2.60
2023-05-14T18:33:00.581Z,3.67
2023-05-14T18:35:27.982Z,2.17
2023-05-14T18:37:54.967Z,2.88
2023-05-14T18:40:21.485Z,2.67
2023-05-14T18:42:48.247Z,2.53
2023-05-14T18:45:14.905Z,2.08
2023-05-14T18:47:41.615Z,1.92
2023-05-14T18:50:08.713Z,2.63
2023-05-14T18:52:35.358Z,1.67
2023-05-14T18:55:02.061Z,1.88
2023-05-14T18:57:37.631Z,1.50
2023-05-14T19:00:05.169Z,1.38
2023-05-14T19:02:31.788Z,2.60
2023-05-14T19:04:58.438Z,1.80
2023-05-14T19:07:25.013Z,1.90
2023-05-14T19:09:51.929Z,1.73
2023-05-14T19:12:18.539Z,2.10
2023-05-14T19:14:45.050Z,1.50
2023-05-14T19:17:11.744Z,2.55
2023-05-14T19:19:39.323Z,2.40
2023-05-14T19:22:06.363Z,1.58
2023-05-14T19:24:32.929Z,3.22
2023-05-14T19:26:59.579Z,2.45
2023-05-14T19:29:26.115Z,2.90
2023-05-14T19:31:52.708Z,2.60
2023-05-14T19:34:19.301Z,4.35
2023-05-14T19:36:45.888Z,3.28
2023-05-14T19:39:12.411Z,2.22
2023-05-14T19:41:39.086Z,2.97
2023-05-14T19:44:05.640Z,2.53
2023-05-14T19:46:32.270Z,2.50
2023-05-14T19:48:58.908Z,3.00
2023-05-14T19:51:25.552Z,2.83
2023-05-14T19:53:52.057Z,2.92
2023-05-14T19:56:18.599Z,3.05
2023-05-14T19:58:45.190Z,3.33
2023-05-14T20:01:12.086Z,3.20
2023-05-14T20:03:38.889Z,3.33
2023-05-14T20:06:07.077Z,3.08
2023-05-14T20:08:33.784Z,2.65
2023-05-14T20:11:00.442Z,2.67
2023-05-14T20:13:27.056Z,2.00
2023-05-14T20:15:55.161Z,2.03
2023-05-14T20:18:21.935Z,1.95
2023-05-14T20:20:49.076Z,1.25
2023-05-14T20:23:15.974Z,2.08
2023-05-14T20:25:43.142Z,2.53
2023-05-14T20:28:10.297Z,2.10
2023-05-14T20:30:37.020Z,2.33
2023-05-14T20:33:04.125Z,3.03
2023-05-14T20:35:31.153Z,1.48
2023-05-14T20:37:57.708Z,2.25
2023-05-14T20:40:24.816Z,2.65
2023-05-14T20:42:52.173Z,2.28
2023-05-14T20:45:19.028Z,1.90
2023-05-14T20:47:45.670Z,2.17
2023-05-14T20:50:13.696Z,2.42
2023-05-14T20:52:40.418Z,3.00
2023-05-14T20:55:07.667Z,3.45
2023-05-14T20:57:34.307Z,3.53
2023-05-14T21:00:02.081Z,5.05
2023-05-14T21:02:28.711Z,3.80
2023-05-14T21:04:55.391Z,2.30
2023-05-14T21:07:21.968Z,2.40
2023-05-14T21:09:52.302Z,2.72
2023-05-14T21:12:19.453Z,3.10
2023-05-14T21:14:46.083Z,2.88
2023-05-14T21:17:12.670Z,2.20
2023-05-14T21:19:39.252Z,4.28
2023-05-14T21:22:06.589Z,2.05
2023-05-14T21:24:33.139Z,2.40
2023-05-14T21:26:59.703Z,2.08
2023-05-14T21:29:26.213Z,3.45
2023-05-14T21:31:52.807Z,1.90
2023-05-14T21:34:19.413Z,1.58
2023-05-14T21:36:46.029Z,3.22
2023-05-14T21:39:12.563Z,1.50
2023-05-14T21:41:39.060Z,2.10
2023-05-14T21:44:05.615Z,1.42
2023-05-14T21:46:32.218Z,1.70
2023-05-14T21:48:58.818Z,1.27
2023-05-14T21:51:25.503Z,2.40
2023-05-14T21:53:52.104Z,1.63
2023-05-14T21:56:18.672Z,1.67
2023-05-14T21:58:45.346Z,3.60
2023-05-14T22:01:11.924Z,2.03
2023-05-14T22:03:38.603Z,1.77
2023-05-14T22:06:05.842Z,2.05
2023-05-14T22:08:32.409Z,2.03
2023-05-14T22:10:59.008Z,1.60
2023-05-14T22:13:25.624Z,1.30
2023-05-14T22:16:01.504Z,1.27
2023-05-14T22:18:38.620Z,1.48
2023-05-14T22:21:05.269Z,1.73
2023-05-14T22:23:31.906Z,1.92
2023-05-14T22:25:58.453Z,1.80
2023-05-14T22:28:25.013Z,1.55
2023-05-14T22:30:51.549Z,1.85
2023-05-14T22:33:19.365Z,1.40
2023-05-14T22:35:46.146Z,1.23
2023-05-14T22:38:13.959Z,2.00
2023-05-14T22:40:40.558Z,1.55
2023-05-14T22:43:07.089Z,0.90
2023-05-14T22:45:33.632Z,2.22
2023-05-14T22:48:00.349Z,1.88
2023-05-14T22:50:26.932Z,2.65
2023-05-14T22:52:53.470Z,2.83
2023-05-14T22:55:20.058Z,4.35
2023-05-14T22:57:46.734Z,4.68
2023-05-14T23:00:13.873Z,6.60
2023-05-14T23:02:40.658Z,3.88
2023-05-14T23:05:08.772Z,5.57
2023-05-14T23:07:35.632Z,3.88
2023-05-14T23:10:02.324Z,4.82
2023-05-14T23:12:28.911Z,4.28
2023-05-14T23:14:55.511Z,3.63
2023-05-14T23:17:22.214Z,3.58
2023-05-14T23:19:48.880Z,5.30
2023-05-14T23:22:15.578Z,2.60
2023-05-14T23:24:42.075Z,3.75
2023-05-14T23:27:08.701Z,2.90
2023-05-14T23:29:35.584Z,5.28
2023-05-14T23:32:02.177Z,3.20
2023-05-14T23:34:28.844Z,4.43
2023-05-14T23:36:55.738Z,3.40
2023-05-14T23:39:22.576Z,3.40
2023-05-14T23:41:49.082Z,3.92
2023-05-14T23:44:15.589Z,5.55
2023-05-14T23:46:42.140Z,4.78
2023-05-14T23:49:08.781Z,5.28
2023-05-14T23:51:36.539Z,5.63
2023-05-14T23:54:03.322Z,6.57
2023-05-14T23:56:29.888Z,3.72
2023-05-14T23:58:56.764Z,4.80
